Time,TemperatureF,DewpointF,PressureIn,WindDirection,WindDirectionDegrees,WindSpeedMPH,WindSpeedGustMPH,Humidity,HourlyPrecipIn,Conditions,Clouds,dailyrainin,SoftwareType,DateUTC
2013-01-05 00:04:00,46.6,41.0,30.21,East,94,0.0,4.0,81,0.00,,,0.00,meteohub,2013-01-05 08:04:00,
2013-01-05 00:09:00,46.0,40.5,30.21,East,89,0.0,3.0,81,0.00,,,0.00,meteohub,2013-01-05 08:09:00,
2013-01-05 00:14:00,45.1,39.7,30.21,NNW,338,0.0,2.0,81,0.00,,,0.00,meteohub,2013-01-05 08:14:00,
2013-01-05 00:19:00,44.4,39.6,30.21,NNW,338,0.0,1.0,83,0.00,,,0.00,meteohub,2013-01-05 08:19:00,
2013-01-05 00:24:00,44.1,39.6,30.21,NNW,338,0.0,1.0,84,0.00,,,0.00,meteohub,2013-01-05 08:24:00,
2013-01-05 00:29:00,43.7,39.6,30.21,NNW,338,0.0,1.0,85,0.00,,,0.00,meteohub,2013-01-05 08:29:00,
2013-01-05 00:34:00,43.5,39.6,30.21,NNW,338,0.0,1.0,86,0.00,,,0.00,meteohub,2013-01-05 08:34:00,
2013-01-05 00:39:00,43.5,39.4,30.21,NW,316,0.0,1.0,85,0.00,,,0.00,meteohub,2013-01-05 08:39:00,
2013-01-05 00:44:00,43.3,39.2,30.21,NW,326,0.0,1.0,85,0.00,,,0.00,meteohub,2013-01-05 08:44:00,
2013-01-05 00:49:00,43.2,39.2,30.21,NW,316,0.0,1.0,86,0.00,,,0.00,meteohub,2013-01-05 08:49:00,
2013-01-05 00:55:00,43.2,39.2,30.21,NW,316,0.0,1.0,86,0.00,,,0.00,meteohub,2013-01-05 08:55:00,
2013-01-05 01:00:00,43.0,38.8,30.21,NW,316,0.0,1.0,85,0.00,,,0.00,meteohub,2013-01-05 09:00:00,
2013-01-05 01:05:00,42.6,39.0,30.21,NW,316,0.0,0.0,87,0.00,,,0.00,meteohub,2013-01-05 09:05:00,
2013-01-05 01:10:00,42.4,38.8,30.21,NW,306,0.0,1.0,87,0.00,,,0.00,meteohub,2013-01-05 09:10:00,
2013-01-05 01:15:00,42.6,39.4,30.21,NW,307,0.0,1.0,88,0.00,,,0.00,meteohub,2013-01-05 09:15:00,
2013-01-05 01:20:00,42.6,39.4,30.21,NW,306,0.0,1.0,88,0.00,,,0.00,meteohub,2013-01-05 09:20:00,
2013-01-05 01:25:00,42.6,39.0,30.21,SW,215,0.0,1.0,87,0.00,,,0.00,meteohub,2013-01-05 09:25:00,
2013-01-05 01:30:00,42.3,39.0,30.21,NW,322,0.0,1.0,88,0.00,,,0.00,meteohub,2013-01-05 09:30:00,
2013-01-05 01:35:00,42.3,39.0,30.21,NW,322,0.0,1.0,88,0.00,,,0.00,meteohub,2013-01-05 09:35:00,
2013-01-05 01:40:00,42.3,39.0,30.21,NW,322,0.0,1.0,88,0.00,,,0.00,meteohub,2013-01-05 09:40:00,
2013-01-05 01:45:00,42.3,39.0,30.22,NW,322,0.0,1.0,88,0.00,,,0.00,meteohub,2013-01-05 09:45:00,
2013-01-05 01:51:00,42.3,39.0,30.21,NW,321,0.0,0.0,88,0.00,,,0.00,meteohub,2013-01-05 09:51:00,
2013-01-05 01:56:00,42.1,38.8,30.22,NW,322,0.0,0.0,88,0.00,,,0.00,meteohub,2013-01-05 09:56:00,
2013-01-05 02:01:00,41.7,38.1,30.22,NW,322,0.0,0.0,87,0.00,,,0.00,meteohub,2013-01-05 10:01:00,
2013-01-05 02:06:00,41.9,38.8,30.22,NW,321,0.0,0.0,89,0.00,,,0.00,meteohub,2013-01-05 10:06:00,
2013-01-05 02:11:00,41.7,38.5,30.22,NW,321,0.0,1.0,88,0.00,,,0.00,meteohub,2013-01-05 10:11:00,
2013-01-05 02:16:00,41.7,38.7,30.22,NW,321,0.0,1.0,89,0.00,,,0.00,meteohub,2013-01-05 10:16:00,
2013-01-05 02:21:00,42.1,39.0,30.21,NW,322,0.0,0.0,89,0.00,,,0.00,meteohub,2013-01-05 10:21:00,
2013-01-05 02:26:00,42.1,39.0,30.21,NW,322,0.0,0.0,89,0.00,,,0.00,meteohub,2013-01-05 10:26:00,
2013-01-05 02:31:00,41.7,38.7,30.21,NW,322,0.0,0.0,89,0.00,,,0.00,meteohub,2013-01-05 10:31:00,
2013-01-05 02:36:00,41.7,39.2,30.22,NW,322,0.0,0.0,91,0.00,,,0.00,meteohub,2013-01-05 10:36:00,
2013-01-05 02:42:00,41.9,39.2,30.22,NW,322,0.0,1.0,90,0.00,,,0.00,meteohub,2013-01-05 10:42:00,
2013-01-05 02:47:00,42.1,39.4,30.22,NW,325,0.0,1.0,90,0.00,,,0.00,meteohub,2013-01-05 10:47:00,
2013-01-05 02:52:00,42.1,39.0,30.22,NNW,347,0.0,1.0,89,0.00,,,0.00,meteohub,2013-01-05 10:52:00,
2013-01-05 02:57:00,41.9,39.2,30.23,WNW,294,1.0,1.0,90,0.00,,,0.00,meteohub,2013-01-05 10:57:00,
2013-01-05 03:02:00,42.1,39.4,30.22,NW,312,1.0,1.0,90,0.00,,,0.00,meteohub,2013-01-05 11:02:00,
2013-01-05 03:07:00,42.3,39.2,30.22,NW,312,0.0,1.0,89,0.00,,,0.00,meteohub,2013-01-05 11:07:00,
2013-01-05 03:12:00,42.3,39.6,30.22,NW,311,0.0,1.0,90,0.00,,,0.00,meteohub,2013-01-05 11:12:00,
2013-01-05 03:17:00,42.1,39.4,30.23,WNW,297,0.0,1.0,90,0.00,,,0.00,meteohub,2013-01-05 11:17:00,
2013-01-05 03:22:00,42.1,39.4,30.22,WNW,298,0.0,1.0,90,0.00,,,0.00,meteohub,2013-01-05 11:22:00,
2013-01-05 03:27:00,42.3,39.6,30.22,WNW,298,0.0,1.0,90,0.00,,,0.00,meteohub,2013-01-05 11:27:00,
2013-01-05 03:32:00,42.1,39.4,30.22,WNW,298,0.0,1.0,90,0.00,,,0.00,meteohub,2013-01-05 11:32:00,
2013-01-05 03:37:00,42.3,39.6,30.22,WNW,297,1.0,1.0,90,0.00,,,0.00,meteohub,2013-01-05 11:37:00,
2013-01-05 03:42:00,42.3,39.2,30.22,NW,326,0.0,1.0,89,0.00,,,0.00,meteohub,2013-01-05 11:42:00,
2013-01-05 03:47:00,41.7,38.7,30.22,NW,326,0.0,1.0,89,0.00,,,0.00,meteohub,2013-01-05 11:47:00,
2013-01-05 03:52:00,41.7,39.0,30.22,NW,324,0.0,1.0,90,0.00,,,0.00,meteohub,2013-01-05 11:52:00,
2013-01-05 03:57:00,41.7,39.0,30.22,NW,326,0.0,1.0,90,0.00,,,0.00,meteohub,2013-01-05 11:57:00,
2013-01-05 04:02:00,41.7,39.0,30.22,NW,324,0.0,1.0,90,0.00,,,0.00,meteohub,2013-01-05 12:02:00,
2013-01-05 04:07:00,41.5,38.8,30.22,NW,325,0.0,1.0,90,0.00,,,0.00,meteohub,2013-01-05 12:07:00,
2013-01-05 04:12:00,41.5,38.8,30.22,NW,324,0.0,1.0,90,0.00,,,0.00,meteohub,2013-01-05 12:12:00,
2013-01-05 04:17:00,41.4,38.7,30.22,NW,324,0.0,1.0,90,0.00,,,0.00,meteohub,2013-01-05 12:17:00,
2013-01-05 04:22:00,41.4,39.0,30.22,NW,324,0.0,1.0,91,0.00,,,0.00,meteohub,2013-01-05 12:22:00,
2013-01-05 04:27:00,41.4,38.7,30.22,NW,321,0.0,1.0,90,0.00,,,0.00,meteohub,2013-01-05 12:27:00,
2013-01-05 04:32:00,41.2,38.5,30.22,WNW,293,0.0,1.0,90,0.00,,,0.00,meteohub,2013-01-05 12:32:00,
2013-01-05 04:37:00,41.2,38.8,30.22,WNW,293,0.0,1.0,91,0.00,,,0.00,meteohub,2013-01-05 12:37:00,
2013-01-05 04:42:00,41.5,39.2,30.22,WNW,293,0.0,1.0,91,0.00,,,0.00,meteohub,2013-01-05 12:42:00,
2013-01-05 04:47:00,41.5,39.2,30.22,WNW,293,0.0,1.0,91,0.00,,,0.00,meteohub,2013-01-05 12:47:00,
2013-01-05 04:52:00,41.4,38.7,30.22,WNW,292,0.0,1.0,90,0.00,,,0.00,meteohub,2013-01-05 12:52:00,
2013-01-05 04:57:00,41.5,39.2,30.22,NW,304,0.0,1.0,91,0.00,,,0.00,meteohub,2013-01-05 12:57:00,
2013-01-05 05:02:00,41.5,38.8,30.23,NW,304,0.0,1.0,90,0.00,,,0.00,meteohub,2013-01-05 13:02:00,
2013-01-05 05:07:00,41.5,39.2,30.22,NW,304,0.0,1.0,91,0.00,,,0.00,meteohub,2013-01-05 13:07:00,
2013-01-05 05:12:00,41.5,39.2,30.22,NW,304,0.0,0.0,91,0.00,,,0.00,meteohub,2013-01-05 13:12:00,
2013-01-05 05:17:00,41.7,39.6,30.23,NW,304,0.0,0.0,92,0.00,,,0.00,meteohub,2013-01-05 13:17:00,
2013-01-05 05:22:00,42.3,40.6,30.23,NW,304,0.0,0.0,94,0.00,,,0.00,meteohub,2013-01-05 13:22:00,
2013-01-05 05:27:00,43.2,41.5,30.23,SSW,200,1.0,0.0,94,0.00,,,0.00,meteohub,2013-01-05 13:27:00,
2013-01-05 05:32:00,43.7,41.5,30.22,SSW,195,0.0,1.0,92,0.00,,,0.00,meteohub,2013-01-05 13:32:00,
2013-01-05 05:37:00,44.1,41.9,30.22,SSW,195,0.0,1.0,92,0.00,,,0.00,meteohub,2013-01-05 13:37:00,
2013-01-05 05:42:00,44.2,41.7,30.23,SSW,195,0.0,1.0,91,0.00,,,0.00,meteohub,2013-01-05 13:42:00,
2013-01-05 05:47:00,44.4,41.9,30.23,SSW,195,0.0,1.0,91,0.00,,,0.00,meteohub,2013-01-05 13:47:00,
2013-01-05 05:52:00,44.4,41.9,30.23,SSW,195,0.0,0.0,91,0.00,,,0.00,meteohub,2013-01-05 13:52:00,
2013-01-05 05:57:00,44.8,42.3,30.23,SSW,195,0.0,0.0,91,0.00,,,0.00,meteohub,2013-01-05 13:57:00,
2013-01-05 06:02:00,45.0,42.3,30.23,SSW,195,0.0,0.0,90,0.00,,,0.00,meteohub,2013-01-05 14:02:00,
2013-01-05 06:07:00,44.8,42.1,30.23,SSW,195,0.0,0.0,90,0.00,,,0.00,meteohub,2013-01-05 14:07:00,
2013-01-05 06:12:00,44.8,42.1,30.23,SSW,195,0.0,0.0,90,0.00,,,0.00,meteohub,2013-01-05 14:12:00,
2013-01-05 06:17:00,44.8,42.1,30.23,SSW,195,0.0,0.0,90,0.00,,,0.00,meteohub,2013-01-05 14:17:00,
2013-01-05 06:22:00,44.8,42.1,30.23,SSW,195,0.0,0.0,90,0.00,,,0.00,meteohub,2013-01-05 14:22:00,
2013-01-05 06:27:00,45.0,42.3,30.23,SSW,195,0.0,0.0,90,0.00,,,0.00,meteohub,2013-01-05 14:27:00,
2013-01-05 06:32:00,45.0,42.3,30.23,SSW,195,0.0,0.0,90,0.00,,,0.00,meteohub,2013-01-05 14:32:00,
2013-01-05 06:37:00,45.1,42.4,30.23,SSW,195,0.0,0.0,90,0.00,,,0.00,meteohub,2013-01-05 14:37:00,
2013-01-05 06:42:00,45.1,42.4,30.23,SSW,195,0.0,0.0,90,0.00,,,0.00,meteohub,2013-01-05 14:42:00,
2013-01-05 06:47:00,45.1,42.4,30.23,SSW,195,0.0,0.0,90,0.00,,,0.00,meteohub,2013-01-05 14:47:00,
2013-01-05 06:52:00,45.1,42.4,30.23,SSW,195,0.0,0.0,90,0.00,,,0.00,meteohub,2013-01-05 14:52:00,
2013-01-05 06:57:00,45.3,42.6,30.23,SSW,195,0.0,0.0,90,0.00,,,0.00,meteohub,2013-01-05 14:57:00,
2013-01-05 07:02:00,45.3,42.6,30.23,SSW,195,0.0,1.0,90,0.00,,,0.00,meteohub,2013-01-05 15:02:00,
2013-01-05 07:07:00,45.3,42.6,30.24,SSW,195,0.0,1.0,90,0.00,,,0.00,meteohub,2013-01-05 15:07:00,
2013-01-05 07:12:00,45.7,43.0,30.24,SSW,195,0.0,0.0,90,0.00,,,0.00,meteohub,2013-01-05 15:12:00,
2013-01-05 07:17:00,45.9,43.2,30.24,SSW,194,0.0,0.0,90,0.00,,,0.00,meteohub,2013-01-05 15:17:00,
2013-01-05 07:22:00,45.9,42.8,30.24,SSW,195,0.0,0.0,89,0.00,,,0.00,meteohub,2013-01-05 15:22:00,
2013-01-05 07:27:00,46.0,42.6,30.24,SE,139,1.0,0.0,88,0.00,,,0.00,meteohub,2013-01-05 15:27:00,
2013-01-05 07:32:00,46.4,43.0,30.24,SE,134,2.0,3.0,88,0.00,,,0.00,meteohub,2013-01-05 15:32:00,
2013-01-05 07:38:00,46.8,42.8,30.24,South,174,3.0,4.0,86,0.00,,,0.00,meteohub,2013-01-05 15:38:00,
2013-01-05 07:43:00,46.9,43.0,30.24,SSW,210,1.0,4.0,86,0.00,,,0.00,meteohub,2013-01-05 15:43:00,
2013-01-05 07:48:00,46.9,43.0,30.24,South,191,0.0,4.0,86,0.00,,,0.00,meteohub,2013-01-05 15:48:00,
2013-01-05 07:53:00,47.1,43.2,30.24,SSW,210,0.0,4.0,86,0.00,,,0.00,meteohub,2013-01-05 15:53:00,
2013-01-05 07:58:00,47.1,43.2,30.24,SSW,194,1.0,4.0,86,0.00,,,0.00,meteohub,2013-01-05 15:58:00,
2013-01-05 08:03:00,47.1,43.2,30.25,SE,145,0.0,3.0,86,0.00,,,0.00,meteohub,2013-01-05 16:03:00,
2013-01-05 08:08:00,47.3,43.3,30.24,SSW,198,0.0,2.0,86,0.00,,,0.00,meteohub,2013-01-05 16:08:00,
2013-01-05 08:13:00,47.5,43.5,30.25,ESE,114,1.0,2.0,86,0.00,,,0.00,meteohub,2013-01-05 16:13:00,
2013-01-05 08:18:00,47.5,43.5,30.25,SSW,201,1.0,2.0,86,0.00,,,0.00,meteohub,2013-01-05 16:18:00,
2013-01-05 08:24:00,47.7,43.7,30.24,SSW,211,0.0,2.0,86,0.00,,,0.00,meteohub,2013-01-05 16:24:00,
2013-01-05 08:29:00,47.7,43.7,30.24,SSE,156,1.0,2.0,86,0.00,,,0.00,meteohub,2013-01-05 16:29:00,
2013-01-05 08:34:00,47.8,43.9,30.25,South,183,1.0,3.0,86,0.00,,,0.00,meteohub,2013-01-05 16:34:00,
2013-01-05 08:39:00,48.0,44.1,30.25,SSE,162,1.0,3.0,86,0.00,,,0.00,meteohub,2013-01-05 16:39:00,
2013-01-05 08:44:00,48.0,44.1,30.25,SSE,156,1.0,5.0,86,0.00,,,0.00,meteohub,2013-01-05 16:44:00,
2013-01-05 08:49:00,48.2,44.2,30.24,SE,142,2.0,5.0,86,0.00,,,0.00,meteohub,2013-01-05 16:49:00,
2013-01-05 08:54:00,48.4,44.8,30.24,SE,131,1.0,5.0,87,0.00,,,0.00,meteohub,2013-01-05 16:54:00,
2013-01-05 08:59:00,48.6,44.8,30.24,SE,142,5.0,6.0,87,0.00,,,0.00,meteohub,2013-01-05 16:59:00,
2013-01-05 09:04:00,48.7,44.8,30.24,South,181,4.0,6.0,86,0.00,,,0.00,meteohub,2013-01-05 17:04:00,
2013-01-05 09:09:00,48.9,44.6,30.24,SW,219,4.0,6.0,85,0.00,,,0.00,meteohub,2013-01-05 17:09:00,
2013-01-05 09:15:00,48.9,44.6,30.24,South,188,6.0,6.0,85,0.00,,,0.00,meteohub,2013-01-05 17:15:00,
2013-01-05 09:20:00,49.1,44.4,30.24,SSE,155,5.0,8.0,84,0.00,,,0.00,meteohub,2013-01-05 17:20:00,
2013-01-05 09:25:00,49.3,44.6,30.24,East,89,3.0,8.0,84,0.00,,,0.00,meteohub,2013-01-05 17:25:00,
2013-01-05 09:30:00,49.5,44.8,30.24,SSE,168,2.0,8.0,84,0.00,,,0.00,meteohub,2013-01-05 17:30:00,
2013-01-05 09:35:00,49.5,44.6,30.24,SSW,208,5.0,6.0,83,0.00,,,0.00,meteohub,2013-01-05 17:35:00,
2013-01-05 09:40:00,49.6,44.8,30.24,SSE,160,5.0,6.0,83,0.00,,,0.00,meteohub,2013-01-05 17:40:00,
2013-01-05 09:45:00,49.6,44.8,30.23,SE,124,3.0,9.0,83,0.00,,,0.00,meteohub,2013-01-05 17:45:00,
2013-01-05 09:50:00,49.8,44.8,30.23,South,172,3.0,9.0,83,0.00,,,0.00,meteohub,2013-01-05 17:50:00,
2013-01-05 09:55:00,50.2,45.0,30.22,SSW,193,4.0,8.0,82,0.00,,,0.00,meteohub,2013-01-05 17:55:00,
2013-01-05 10:00:00,50.4,45.1,30.22,SSW,204,3.0,8.0,82,0.00,,,0.00,meteohub,2013-01-05 18:00:00,
2013-01-05 10:06:00,50.5,45.0,30.21,SE,143,3.0,13.0,81,0.00,,,0.00,meteohub,2013-01-05 18:06:00,
2013-01-05 10:11:00,50.4,44.8,30.19,South,180,3.0,13.0,81,0.00,,,0.00,meteohub,2013-01-05 18:11:00,
2013-01-05 10:16:00,50.4,44.8,30.20,ESE,118,2.0,13.0,81,0.00,,,0.00,meteohub,2013-01-05 18:16:00,
2013-01-05 10:21:00,50.5,45.0,30.19,ESE,113,3.0,13.0,81,0.00,,,0.00,meteohub,2013-01-05 18:21:00,
2013-01-05 10:26:00,50.5,45.0,30.21,ESE,120,1.0,10.0,81,0.00,,,0.00,meteohub,2013-01-05 18:26:00,
2013-01-05 10:31:00,50.5,45.0,30.22,ENE,61,0.0,9.0,81,0.00,,,0.00,meteohub,2013-01-05 18:31:00,
2013-01-05 10:36:00,50.5,45.0,30.22,NNW,338,2.0,9.0,81,0.00,,,0.00,meteohub,2013-01-05 18:36:00,
2013-01-05 10:41:00,50.5,45.0,30.22,SE,141,0.0,6.0,81,0.00,,,0.00,meteohub,2013-01-05 18:41:00,
2013-01-05 10:46:00,50.5,45.3,30.22,South,170,0.0,4.0,82,0.00,,,0.00,meteohub,2013-01-05 18:46:00,
2013-01-05 10:51:00,50.7,45.1,30.22,SE,141,0.0,4.0,81,0.00,,,0.00,meteohub,2013-01-05 18:51:00,
2013-01-05 10:56:00,50.9,45.3,30.22,ESE,118,1.0,3.0,81,0.00,,,0.00,meteohub,2013-01-05 18:56:00,
2013-01-05 11:02:00,51.1,45.5,30.22,SSE,156,2.0,4.0,81,0.00,,,0.00,meteohub,2013-01-05 19:02:00,
2013-01-05 11:07:00,51.4,45.5,30.22,SSE,160,2.0,4.0,80,0.00,,,0.00,meteohub,2013-01-05 19:07:00,
2013-01-05 11:12:00,51.4,45.1,30.22,SE,134,2.0,4.0,79,0.00,,,0.00,meteohub,2013-01-05 19:12:00,
2013-01-05 11:17:00,51.6,45.3,30.22,South,177,2.0,4.0,79,0.00,,,0.00,meteohub,2013-01-05 19:17:00,
2013-01-05 11:22:00,51.6,45.3,30.21,SSW,208,1.0,6.0,79,0.00,,,0.00,meteohub,2013-01-05 19:22:00,
2013-01-05 11:27:00,51.6,45.3,30.21,SSE,153,2.0,6.0,79,0.00,,,0.00,meteohub,2013-01-05 19:27:00,
2013-01-05 11:32:00,52.0,45.7,30.21,South,177,0.0,6.0,79,0.00,,,0.00,meteohub,2013-01-05 19:32:00,
2013-01-05 11:37:00,52.2,45.9,30.20,SSE,156,0.0,5.0,79,0.00,,,0.00,meteohub,2013-01-05 19:37:00,
2013-01-05 11:42:00,52.3,45.7,30.20,ESE,108,1.0,2.0,78,0.00,,,0.00,meteohub,2013-01-05 19:42:00,
2013-01-05 11:47:00,52.3,45.7,30.19,SSE,156,0.0,2.0,78,0.00,,,0.00,meteohub,2013-01-05 19:47:00,
2013-01-05 11:52:00,52.5,45.9,30.19,South,177,2.0,4.0,78,0.00,,,0.00,meteohub,2013-01-05 19:52:00,
2013-01-05 11:57:00,52.5,45.9,30.19,SSE,158,1.0,4.0,78,0.00,,,0.00,meteohub,2013-01-05 19:57:00,
2013-01-05 12:02:00,52.9,45.9,30.19,SSE,163,4.0,4.0,77,0.00,,,0.00,meteohub,2013-01-05 20:02:00,
2013-01-05 12:07:00,52.7,45.7,30.18,South,172,1.0,5.0,77,0.00,,,0.00,meteohub,2013-01-05 20:07:00,
2013-01-05 12:12:00,52.5,45.9,30.18,ESE,104,1.0,5.0,78,0.00,,,0.00,meteohub,2013-01-05 20:12:00,
2013-01-05 12:17:00,52.5,45.9,30.17,SE,141,3.0,5.0,78,0.00,,,0.00,meteohub,2013-01-05 20:17:00,
2013-01-05 12:22:00,52.7,46.0,30.16,SSW,193,1.0,5.0,78,0.00,,,0.00,meteohub,2013-01-05 20:22:00,
2013-01-05 12:27:00,52.9,45.9,30.17,SE,128,0.0,5.0,77,0.00,,,0.00,meteohub,2013-01-05 20:27:00,
2013-01-05 12:32:00,52.9,45.9,30.17,SSW,203,0.0,5.0,77,0.00,,,0.00,meteohub,2013-01-05 20:32:00,
2013-01-05 12:37:00,53.1,46.0,30.17,WSW,242,0.0,5.0,77,0.00,,,0.00,meteohub,2013-01-05 20:37:00,
2013-01-05 12:42:00,53.1,46.0,30.16,South,184,0.0,3.0,77,0.00,,,0.00,meteohub,2013-01-05 20:42:00,
2013-01-05 12:47:00,53.1,46.0,30.16,SE,127,0.0,2.0,77,0.00,,,0.00,meteohub,2013-01-05 20:47:00,
2013-01-05 12:52:00,53.1,46.0,30.16,SSW,212,1.0,2.0,77,0.00,,,0.00,meteohub,2013-01-05 20:52:00,
2013-01-05 12:57:00,53.2,46.2,30.16,SSE,153,1.0,2.0,77,0.00,,,0.00,meteohub,2013-01-05 20:57:00,
2013-01-05 13:02:00,53.2,46.2,30.15,SSE,154,1.0,2.0,77,0.00,,,0.00,meteohub,2013-01-05 21:02:00,
2013-01-05 13:07:00,53.2,45.9,30.15,SSW,207,1.0,2.0,76,0.00,,,0.00,meteohub,2013-01-05 21:07:00,
2013-01-05 13:12:00,53.2,45.9,30.14,SSW,198,2.0,4.0,76,0.00,,,0.00,meteohub,2013-01-05 21:12:00,
2013-01-05 13:17:00,53.4,46.0,30.14,SW,218,2.0,4.0,76,0.00,,,0.00,meteohub,2013-01-05 21:17:00,
2013-01-05 13:22:00,53.2,45.9,30.14,SSE,148,2.0,5.0,76,0.00,,,0.00,meteohub,2013-01-05 21:22:00,
2013-01-05 13:27:00,53.4,46.0,30.14,SSW,201,0.0,5.0,76,0.00,,,0.00,meteohub,2013-01-05 21:27:00,
2013-01-05 13:32:00,53.4,46.0,30.14,SSE,153,0.0,5.0,76,0.00,,,0.00,meteohub,2013-01-05 21:32:00,
2013-01-05 13:37:00,53.6,46.2,30.14,North,4,1.0,3.0,76,0.00,,,0.00,meteohub,2013-01-05 21:37:00,
2013-01-05 13:42:00,52.5,46.2,30.14,NNE,25,2.0,3.0,79,0.00,,,0.00,meteohub,2013-01-05 21:42:00,
2013-01-05 13:47:00,51.6,46.0,30.14,NW,319,0.0,6.0,81,0.00,,,0.00,meteohub,2013-01-05 21:47:00,
2013-01-05 13:52:00,51.3,46.0,30.14,ESE,110,1.0,6.0,82,0.00,,,0.00,meteohub,2013-01-05 21:52:00,
2013-01-05 13:57:00,51.3,46.0,30.14,East,89,0.0,4.0,82,0.00,,,0.00,meteohub,2013-01-05 21:57:00,
2013-01-05 14:02:00,51.1,45.9,30.13,SE,141,0.0,3.0,82,0.00,,,0.00,meteohub,2013-01-05 22:02:00,
2013-01-05 14:07:00,51.1,45.9,30.13,East,81,0.0,3.0,82,0.00,,,0.00,meteohub,2013-01-05 22:07:00,
2013-01-05 14:12:00,51.3,46.0,30.13,SE,126,0.0,4.0,82,0.00,,,0.00,meteohub,2013-01-05 22:12:00,
2013-01-05 14:17:00,51.3,46.2,30.12,NNE,29,0.0,4.0,83,0.00,,,0.00,meteohub,2013-01-05 22:17:00,
2013-01-05 14:22:00,51.3,46.2,30.12,NNE,29,0.0,2.0,83,0.00,,,0.00,meteohub,2013-01-05 22:22:00,
2013-01-05 14:27:00,51.3,46.2,30.12,East,95,0.0,2.0,83,0.00,,,0.00,meteohub,2013-01-05 22:27:00,
2013-01-05 14:32:00,51.1,46.0,30.12,ESE,110,1.0,2.0,83,0.00,,,0.00,meteohub,2013-01-05 22:32:00,
2013-01-05 14:37:00,51.1,46.0,30.12,SE,146,0.0,3.0,83,0.00,,,0.00,meteohub,2013-01-05 22:37:00,
2013-01-05 14:42:00,51.3,46.6,30.11,SE,145,0.0,3.0,84,0.00,,,0.00,meteohub,2013-01-05 22:42:00,
2013-01-05 14:47:00,51.3,46.6,30.11,East,89,1.0,2.0,84,0.00,,,0.00,meteohub,2013-01-05 22:47:00,
2013-01-05 14:52:00,51.1,47.1,30.11,East,100,0.0,2.0,86,0.00,,,0.00,meteohub,2013-01-05 22:52:00,
2013-01-05 14:57:00,50.9,46.6,30.11,South,183,0.0,2.0,85,0.00,,,0.00,meteohub,2013-01-05 22:57:00,
2013-01-05 15:02:00,50.7,46.9,30.10,South,184,0.0,2.0,87,0.00,,,0.00,meteohub,2013-01-05 23:02:00,
2013-01-05 15:07:00,50.7,47.3,30.11,South,185,0.0,2.0,88,0.00,,,0.00,meteohub,2013-01-05 23:07:00,
2013-01-05 15:12:00,50.5,47.1,30.11,North,7,0.0,1.0,88,0.00,,,0.00,meteohub,2013-01-05 23:12:00,
2013-01-05 15:17:00,50.5,47.1,30.11,North,8,0.0,2.0,88,0.00,,,0.00,meteohub,2013-01-05 23:17:00,
2013-01-05 15:22:00,50.4,46.9,30.10,NNW,338,1.0,2.0,88,0.00,,,0.00,meteohub,2013-01-05 23:22:00,
2013-01-05 15:27:00,50.4,47.3,30.10,NNW,340,0.0,2.0,89,0.00,,,0.00,meteohub,2013-01-05 23:27:00,
2013-01-05 15:32:00,50.2,47.1,30.10,NNW,345,1.0,2.0,89,0.01,,,0.01,meteohub,2013-01-05 23:32:00,
2013-01-05 15:37:00,50.2,47.1,30.10,North,6,0.0,2.0,89,0.01,,,0.01,meteohub,2013-01-05 23:37:00,
2013-01-05 15:42:00,50.0,47.1,30.10,North,5,0.0,2.0,90,0.02,,,0.02,meteohub,2013-01-05 23:42:00,
2013-01-05 15:47:00,49.8,46.9,30.10,North,5,0.0,2.0,90,0.02,,,0.02,meteohub,2013-01-05 23:47:00,
2013-01-05 15:52:00,49.8,46.9,30.10,North,5,1.0,1.0,90,0.02,,,0.02,meteohub,2013-01-05 23:52:00,
2013-01-05 15:57:00,49.6,47.1,30.10,North,5,0.0,1.0,91,0.03,,,0.03,meteohub,2013-01-05 23:57:00,
2013-01-05 16:02:00,49.8,47.7,30.10,North,5,0.0,1.0,92,0.04,,,0.04,meteohub,2013-01-06 00:02:00,
2013-01-05 16:07:00,49.6,47.5,30.10,North,349,1.0,1.0,92,0.04,,,0.04,meteohub,2013-01-06 00:07:00,
2013-01-05 16:12:00,49.5,47.3,30.10,NW,324,1.0,2.0,92,0.05,,,0.05,meteohub,2013-01-06 00:12:00,
2013-01-05 16:17:00,49.3,47.1,30.10,NW,323,0.0,2.0,92,0.06,,,0.06,meteohub,2013-01-06 00:17:00,
2013-01-05 16:22:00,49.1,46.9,30.10,NNW,342,0.0,2.0,92,0.06,,,0.06,meteohub,2013-01-06 00:22:00,
2013-01-05 16:27:00,49.1,47.1,30.10,NNE,25,0.0,2.0,93,0.06,,,0.06,meteohub,2013-01-06 00:27:00,
2013-01-05 16:32:00,48.9,46.9,30.10,NNE,30,0.0,2.0,93,0.05,,,0.06,meteohub,2013-01-06 00:32:00,
2013-01-05 16:37:00,48.9,46.9,30.10,NNE,19,1.0,2.0,93,0.05,,,0.06,meteohub,2013-01-06 00:37:00,
2013-01-05 16:42:00,48.9,46.9,30.10,NNE,32,1.0,2.0,93,0.04,,,0.06,meteohub,2013-01-06 00:42:00,
2013-01-05 16:47:00,48.9,47.3,30.10,NE,40,0.0,2.0,94,0.04,,,0.06,meteohub,2013-01-06 00:47:00,
2013-01-05 16:52:00,48.9,47.3,30.09,NE,51,2.0,3.0,94,0.04,,,0.06,meteohub,2013-01-06 00:52:00,
2013-01-05 16:57:00,48.9,47.3,30.10,East,91,0.0,3.0,94,0.04,,,0.07,meteohub,2013-01-06 00:57:00,
2013-01-05 17:02:00,48.7,47.1,30.10,NE,49,0.0,3.0,94,0.03,,,0.07,meteohub,2013-01-06 01:02:00,
2013-01-05 17:07:00,48.7,47.3,30.09,East,89,0.0,2.0,95,0.03,,,0.08,meteohub,2013-01-06 01:07:00,
2013-01-05 17:12:00,48.7,47.3,30.09,NNW,328,0.0,2.0,95,0.04,,,0.08,meteohub,2013-01-06 01:12:00,
2013-01-05 17:17:00,48.9,47.5,30.09,ENE,73,0.0,2.0,95,0.03,,,0.09,meteohub,2013-01-06 01:17:00,
2013-01-05 17:22:00,48.9,47.5,30.09,NNE,18,2.0,2.0,95,0.04,,,0.10,meteohub,2013-01-06 01:22:00,
2013-01-05 17:27:00,48.9,47.5,30.09,ESE,116,0.0,2.0,95,0.05,,,0.11,meteohub,2013-01-06 01:27:00,
2013-01-05 17:32:00,48.9,47.5,30.09,ESE,115,0.0,2.0,95,0.05,,,0.11,meteohub,2013-01-06 01:32:00,
2013-01-05 17:37:00,48.9,47.5,30.09,ESE,115,0.0,2.0,95,0.06,,,0.12,meteohub,2013-01-06 01:37:00,
2013-01-05 17:42:00,48.7,47.3,30.09,ESE,115,0.0,0.0,95,0.06,,,0.12,meteohub,2013-01-06 01:42:00,
2013-01-05 17:47:00,48.9,47.5,30.09,ESE,116,0.0,0.0,95,0.07,,,0.13,meteohub,2013-01-06 01:47:00,
2013-01-05 17:52:00,48.9,47.5,30.08,ENE,75,0.0,0.0,95,0.06,,,0.13,meteohub,2013-01-06 01:52:00,
2013-01-05 17:57:00,48.7,47.3,30.08,ENE,61,0.0,1.0,95,0.06,,,0.13,meteohub,2013-01-06 01:57:00,
2013-01-05 18:02:00,48.7,47.3,30.08,ENE,57,0.0,1.0,95,0.06,,,0.14,meteohub,2013-01-06 02:02:00,
2013-01-05 18:07:00,48.7,47.3,30.08,ENE,57,0.0,1.0,95,0.06,,,0.14,meteohub,2013-01-06 02:07:00,
2013-01-05 18:12:00,48.7,47.3,30.08,ENE,57,0.0,1.0,95,0.06,,,0.15,meteohub,2013-01-06 02:12:00,
2013-01-05 18:17:00,48.7,47.3,30.08,ENE,57,0.0,0.0,95,0.06,,,0.15,meteohub,2013-01-06 02:17:00,
2013-01-05 18:22:00,48.7,47.3,30.08,NNW,346,0.0,1.0,95,0.06,,,0.16,meteohub,2013-01-06 02:22:00,
2013-01-05 18:27:00,48.7,47.3,30.07,NNW,346,0.0,1.0,95,0.06,,,0.17,meteohub,2013-01-06 02:27:00,
2013-01-05 18:32:00,48.7,47.7,30.07,ESE,115,0.0,1.0,96,0.06,,,0.17,meteohub,2013-01-06 02:32:00,
2013-01-05 18:37:00,48.7,47.3,30.07,South,184,2.0,2.0,95,0.06,,,0.18,meteohub,2013-01-06 02:37:00,
2013-01-05 18:42:00,48.7,47.3,30.07,SE,131,1.0,2.0,95,0.07,,,0.19,meteohub,2013-01-06 02:42:00,
2013-01-05 18:47:00,48.7,47.7,30.07,ESE,113,1.0,2.0,96,0.07,,,0.20,meteohub,2013-01-06 02:47:00,
2013-01-05 18:52:00,48.7,47.7,30.07,South,186,1.0,2.0,96,0.08,,,0.21,meteohub,2013-01-06 02:52:00,
2013-01-05 18:57:00,48.7,47.7,30.06,SSE,148,0.0,2.0,96,0.08,,,0.22,meteohub,2013-01-06 02:57:00,
2013-01-05 19:02:00,48.7,47.7,30.06,SSE,149,0.0,2.0,96,0.08,,,0.22,meteohub,2013-01-06 03:02:00,
2013-01-05 19:07:00,48.7,47.7,30.06,ESE,122,0.0,2.0,96,0.08,,,0.22,meteohub,2013-01-06 03:07:00,
2013-01-05 19:12:00,48.7,47.3,30.06,ESE,121,0.0,1.0,95,0.08,,,0.23,meteohub,2013-01-06 03:12:00,
2013-01-05 19:17:00,48.7,47.3,30.06,North,356,0.0,1.0,95,0.07,,,0.23,meteohub,2013-01-06 03:17:00,
2013-01-05 19:22:00,48.7,47.3,30.06,North,356,0.0,1.0,95,0.07,,,0.23,meteohub,2013-01-06 03:22:00,
2013-01-05 19:27:00,48.7,47.7,30.06,North,356,0.0,1.0,96,0.06,,,0.23,meteohub,2013-01-06 03:27:00,
2013-01-05 19:32:00,48.7,47.7,30.06,North,356,0.0,1.0,96,0.06,,,0.23,meteohub,2013-01-06 03:32:00,
2013-01-05 19:37:00,48.7,47.7,30.07,North,356,0.0,1.0,96,0.05,,,0.24,meteohub,2013-01-06 03:37:00,
2013-01-05 19:42:00,48.7,47.7,30.07,North,358,0.0,1.0,96,0.08,,,0.27,meteohub,2013-01-06 03:42:00,
2013-01-05 19:47:00,48.7,47.7,30.07,North,356,0.0,0.0,96,0.06,,,0.27,meteohub,2013-01-06 03:47:00,
2013-01-05 19:52:00,48.7,47.7,30.07,North,356,0.0,0.0,96,0.06,,,0.28,meteohub,2013-01-06 03:52:00,
2013-01-05 19:57:00,48.7,47.7,30.07,North,358,0.0,0.0,96,0.06,,,0.28,meteohub,2013-01-06 03:57:00,
2013-01-05 20:03:00,48.7,47.7,30.07,North,356,0.0,0.0,96,0.06,,,0.28,meteohub,2013-01-06 04:03:00,
2013-01-05 20:08:00,48.9,47.8,30.07,North,356,0.0,0.0,96,0.06,,,0.28,meteohub,2013-01-06 04:08:00,
2013-01-05 20:13:00,49.1,48.0,30.07,South,179,0.0,1.0,96,0.06,,,0.29,meteohub,2013-01-06 04:13:00,
2013-01-05 20:18:00,49.3,48.2,30.07,West,273,1.0,1.0,96,0.06,,,0.29,meteohub,2013-01-06 04:18:00,
2013-01-05 20:23:00,49.3,48.2,30.06,NW,319,0.0,1.0,96,0.07,,,0.30,meteohub,2013-01-06 04:23:00,
2013-01-05 20:28:00,49.5,48.4,30.06,North,359,0.0,2.0,96,0.08,,,0.31,meteohub,2013-01-06 04:28:00,
2013-01-05 20:33:00,49.5,48.4,30.06,North,359,0.0,2.0,96,0.07,,,0.31,meteohub,2013-01-06 04:33:00,
2013-01-05 20:38:00,49.5,48.0,30.06,North,356,0.0,2.0,95,0.05,,,0.31,meteohub,2013-01-06 04:38:00,
2013-01-05 20:43:00,49.5,48.0,30.06,SW,228,0.0,2.0,95,0.04,,,0.31,meteohub,2013-01-06 04:43:00,
2013-01-05 20:49:00,49.5,48.0,30.06,SW,229,0.0,1.0,95,0.03,,,0.31,meteohub,2013-01-06 04:49:00,
2013-01-05 20:54:00,49.5,48.0,30.06,SW,229,0.0,1.0,95,0.03,,,0.31,meteohub,2013-01-06 04:54:00,
2013-01-05 20:59:00,49.5,48.0,30.07,SW,228,0.0,1.0,95,0.03,,,0.31,meteohub,2013-01-06 04:59:00,
2013-01-05 21:00:00,49.5,48.0,30.07,West,264,0.0,0.0,95,0.03,,,0.31,meteohub,2013-01-06 05:00:00,
2013-01-05 21:02:00,49.5,48.0,30.07,West,278,0.0,0.0,95,0.03,,,0.31,meteohub,2013-01-06 05:02:00,
2013-01-05 21:04:00,49.5,48.0,30.07,WNW,282,0.0,0.0,95,0.03,,,0.31,meteohub,2013-01-06 05:04:00,
2013-01-05 21:05:00,49.5,48.0,30.07,WNW,282,0.0,1.0,95,0.02,,,0.31,meteohub,2013-01-06 05:05:00,
2013-01-05 21:09:00,49.5,48.0,30.06,WNW,283,0.0,1.0,95,0.02,,,0.31,meteohub,2013-01-06 05:09:00,
2013-01-05 21:14:00,49.5,48.4,30.06,South,183,0.0,1.0,96,0.02,,,0.31,meteohub,2013-01-06 05:14:00,
2013-01-05 21:20:00,49.5,48.4,30.06,SSW,198,0.0,1.0,96,0.01,,,0.31,meteohub,2013-01-06 05:20:00,
2013-01-05 21:25:00,49.5,48.4,30.06,NNW,338,0.0,0.0,96,0.00,,,0.31,meteohub,2013-01-06 05:25:00,
2013-01-05 21:30:00,49.3,48.2,30.06,East,83,1.0,1.0,96,0.00,,,0.31,meteohub,2013-01-06 05:30:00,
2013-01-05 21:35:00,49.1,47.7,30.07,NE,36,1.0,1.0,95,0.00,,,0.31,meteohub,2013-01-06 05:35:00,
2013-01-05 21:40:00,48.7,47.3,30.07,East,83,1.0,2.0,95,0.00,,,0.31,meteohub,2013-01-06 05:40:00,
2013-01-05 21:45:00,48.6,47.1,30.07,East,83,0.0,2.0,95,0.01,,,0.32,meteohub,2013-01-06 05:45:00,
2013-01-05 21:50:00,48.6,47.1,30.06,East,82,1.0,2.0,95,0.01,,,0.32,meteohub,2013-01-06 05:50:00,
2013-01-05 21:55:00,48.6,47.1,30.06,NNE,27,0.0,1.0,95,0.01,,,0.32,meteohub,2013-01-06 05:55:00,
2013-01-05 22:00:00,48.4,46.9,30.06,NNE,27,0.0,1.0,95,0.01,,,0.32,meteohub,2013-01-06 06:00:00,
2013-01-05 22:05:00,48.4,46.9,30.06,NNE,27,0.0,1.0,95,0.01,,,0.32,meteohub,2013-01-06 06:05:00,
2013-01-05 22:10:00,48.4,46.9,30.05,NNE,27,0.0,0.0,95,0.01,,,0.32,meteohub,2013-01-06 06:10:00,
2013-01-05 22:16:00,48.2,46.8,30.06,NNE,29,0.0,1.0,95,0.01,,,0.32,meteohub,2013-01-06 06:16:00,
2013-01-05 22:21:00,48.2,46.8,30.06,SE,130,0.0,2.0,95,0.01,,,0.32,meteohub,2013-01-06 06:21:00,
2013-01-05 22:26:00,48.2,46.8,30.06,SSE,164,2.0,2.0,95,0.01,,,0.32,meteohub,2013-01-06 06:26:00,
2013-01-05 22:31:00,48.4,46.9,30.06,SE,131,1.0,3.0,95,0.01,,,0.32,meteohub,2013-01-06 06:31:00,
2013-01-05 22:36:00,48.4,46.9,30.06,ESE,110,1.0,5.0,95,0.01,,,0.32,meteohub,2013-01-06 06:36:00,
2013-01-05 22:41:00,48.4,46.9,30.06,ESE,103,0.0,5.0,95,0.00,,,0.32,meteohub,2013-01-06 06:41:00,
2013-01-05 22:46:00,48.4,46.9,30.06,ESE,118,0.0,5.0,95,0.00,,,0.32,meteohub,2013-01-06 06:46:00,
2013-01-05 22:52:00,48.4,46.9,30.06,NNE,25,0.0,1.0,95,0.00,,,0.32,meteohub,2013-01-06 06:52:00,
2013-01-05 22:57:00,48.4,46.9,30.06,North,5,0.0,1.0,95,0.00,,,0.32,meteohub,2013-01-06 06:57:00,
2013-01-05 23:02:00,48.4,46.9,30.06,North,5,0.0,1.0,95,0.00,,,0.32,meteohub,2013-01-06 07:02:00,
2013-01-05 23:07:00,48.6,47.5,30.06,SSE,152,0.0,1.0,96,0.00,,,0.32,meteohub,2013-01-06 07:07:00,
2013-01-05 23:12:00,48.6,47.5,30.06,SSE,152,0.0,2.0,96,0.00,,,0.32,meteohub,2013-01-06 07:12:00,
2013-01-05 23:17:00,48.6,47.5,30.06,SSE,152,0.0,2.0,96,0.00,,,0.32,meteohub,2013-01-06 07:17:00,
2013-01-05 23:22:00,48.6,47.1,30.06,SSE,152,0.0,1.0,95,0.00,,,0.32,meteohub,2013-01-06 07:22:00,
2013-01-05 23:27:00,48.7,47.7,30.06,SE,142,0.0,0.0,96,0.00,,,0.32,meteohub,2013-01-06 07:27:00,
2013-01-05 23:32:00,48.7,47.1,30.05,South,184,1.0,1.0,94,0.00,,,0.32,meteohub,2013-01-06 07:32:00,
2013-01-05 23:37:00,48.9,46.9,30.05,SSE,155,0.0,1.0,93,0.00,,,0.32,meteohub,2013-01-06 07:37:00,
2013-01-05 23:42:00,49.1,47.1,30.05,SSE,155,0.0,1.0,93,0.00,,,0.32,meteohub,2013-01-06 07:42:00,
2013-01-05 23:47:00,48.9,46.9,30.05,SSE,155,0.0,1.0,93,0.00,,,0.32,meteohub,2013-01-06 07:47:00,
2013-01-05 23:52:00,49.1,47.1,30.05,SE,145,0.0,1.0,93,0.00,,,0.32,meteohub,2013-01-06 07:52:00,
2013-01-05 23:57:00,49.3,47.3,30.05,SW,222,0.0,2.0,93,0.00,,,0.32,meteohub,2013-01-06 07:57:00,